Time;durP1;ratioP1;P1;durP2;ratioP2;P2;SDS_P1;SDS_P2;PMS_P1;PMS_P2;Temp;Humidity;BMP_temperature;BMP_pressure;BME280_temperature;BME280_humidity;BME280_pressure;Samples;Min_cycle;Max_cycle;Signal;HPM_P1;HPM_P2
2020/12/29 00:01:35;;;;;;;6.70;0.40;;;6.20;99.90;;;;;;5032578;28;20055;-57
2020/12/29 00:04:10;;;;;;;5.00;0.35;;;6.30;99.90;;;;;;5027623;28;20057;-56
2020/12/29 00:06:51;;;;;;;2.38;0.30;;;6.20;99.90;;;;;;5029822;28;20439;-54
2020/12/29 00:09:19;;;;;;;4.88;0.28;;;6.20;99.90;;;;;;5021999;28;20115;-56
2020/12/29 00:11:46;;;;;;;8.82;0.20;;;6.20;99.90;;;;;;5032388;28;20479;-56
2020/12/29 00:14:13;;;;;;;7.88;0.30;;;6.20;99.90;;;;;;5031171;28;20479;-56
2020/12/29 00:16:41;;;;;;;9.35;0.30;;;6.10;99.90;;;;;;5024701;28;20471;-54
2020/12/29 00:19:09;;;;;;;3.28;0.20;;;6.10;99.90;;;;;;5033434;28;20402;-55
2020/12/29 00:21:37;;;;;;;6.47;0.35;;;6.10;99.90;;;;;;5031479;28;20057;-57
2020/12/29 00:24:04;;;;;;;6.53;0.60;;;6.10;99.90;;;;;;5025986;28;20058;-57
2020/12/29 00:26:30;;;;;;;5.45;0.30;;;6.20;99.90;;;;;;5023086;28;20083;-57
2020/12/29 00:28:57;;;;;;;5.45;0.25;;;6.20;99.90;;;;;;5026554;28;20065;-57
2020/12/29 00:31:24;;;;;;;7.03;0.45;;;6.20;99.90;;;;;;5025770;28;20049;-57
2020/12/29 00:33:52;;;;;;;6.65;0.25;;;6.20;99.90;;;;;;5016273;28;20376;-55
2020/12/29 00:36:19;;;;;;;4.80;0.30;;;6.20;99.90;;;;;;5030344;28;20053;-57
2020/12/29 00:38:46;;;;;;;4.75;0.35;;;6.10;99.90;;;;;;5032142;28;20541;-57
2020/12/29 00:41:13;;;;;;;6.63;0.25;;;6.10;99.90;;;;;;5032689;28;20288;-57
2020/12/29 00:43:41;;;;;;;7.50;0.30;;;6.10;99.90;;;;;;5020049;28;20068;-57
2020/12/29 00:46:09;;;;;;;1.23;0.30;;;6.10;99.90;;;;;;5019884;28;20053;-57
2020/12/29 00:48:37;;;;;;;3.75;0.30;;;6.00;99.90;;;;;;5025189;28;20468;-57
2020/12/29 00:51:08;;;;;;;3.38;0.85;;;6.00;99.90;;;;;;5030758;28;20048;-55
2020/12/29 00:53:36;;;;;;;6.55;0.25;;;6.00;99.90;;;;;;5030089;28;20041;-58
2020/12/29 00:56:04;;;;;;;2.33;0.30;;;6.00;99.90;;;;;;5017741;28;20061;-57
2020/12/29 00:58:30;;;;;;;6.50;0.20;;;5.90;99.90;;;;;;5024681;28;20045;-56
2020/12/29 01:00:58;;;;;;;2.35;0.20;;;5.90;99.90;;;;;;5021383;28;20410;-57
2020/12/29 01:03:25;;;;;;;5.50;0.20;;;5.90;99.90;;;;;;5019747;28;20054;-57
2020/12/29 01:05:51;;;;;;;6.10;0.20;;;5.90;99.90;;;;;;5030653;28;20045;-57
2020/12/29 01:08:19;;;;;;;7.05;0.95;;;5.90;99.90;;;;;;5015054;28;20065;-57
2020/12/29 01:10:45;;;;;;;5.63;0.40;;;5.90;99.90;;;;;;5027807;28;20061;-56
2020/12/29 01:13:13;;;;;;;5.85;1.02;;;5.90;99.90;;;;;;5031199;28;20529;-57
2020/12/29 01:15:40;;;;;;;3.65;0.20;;;6.00;99.90;;;;;;5033611;28;20049;-57
2020/12/29 01:18:07;;;;;;;4.97;0.20;;;6.00;99.90;;;;;;5026660;28;20037;-57
2020/12/29 01:20:33;;;;;;;5.45;0.20;;;6.10;99.90;;;;;;5024152;28;20467;-57
2020/12/29 01:23:00;;;;;;;2.83;0.20;;;6.10;99.90;;;;;;5024338;28;20060;-57
2020/12/29 01:25:26;;;;;;;2.30;0.28;;;6.10;99.90;;;;;;5019840;28;20046;-57
2020/12/29 01:27:53;;;;;;;10.45;0.52;;;6.10;99.90;;;;;;5029019;28;20473;-56
2020/12/29 01:30:19;;;;;;;3.65;0.20;;;6.00;99.90;;;;;;5015340;28;20057;-56
2020/12/29 01:32:46;;;;;;;2.92;0.15;;;6.00;99.90;;;;;;5028885;28;20070;-57
2020/12/29 01:35:13;;;;;;;6.72;0.20;;;6.00;99.90;;;;;;5019169;28;20470;-57
2020/12/29 01:37:44;;;;;;;5.15;0.25;;;6.00;99.90;;;;;;5030891;28;20057;-57
2020/12/29 01:40:12;;;;;;;3.63;0.20;;;6.00;99.90;;;;;;5028922;28;20045;-56
2020/12/29 01:42:39;;;;;;;2.33;1.10;;;6.00;99.90;;;;;;5031178;28;20712;-56
2020/12/29 01:45:11;;;;;;;4.07;0.40;;;6.10;99.90;;;;;;5027887;28;20048;-57
2020/12/29 01:47:39;;;;;;;6.68;0.35;;;6.10;99.90;;;;;;5016106;28;20058;-57
2020/12/29 01:50:14;;;;;;;5.88;0.47;;;6.10;99.90;;;;;;5031119;28;20061;-57
2020/12/29 01:52:41;;;;;;;3.70;0.20;;;6.10;99.90;;;;;;5029566;28;20052;-57
2020/12/29 01:55:09;;;;;;;2.85;0.20;;;6.10;99.90;;;;;;5020858;28;20038;-56
2020/12/29 01:57:37;;;;;;;5.28;0.20;;;6.00;99.90;;;;;;5026675;28;20099;-56
2020/12/29 02:00:08;;;;;;;2.83;0.10;;;6.00;99.90;;;;;;5030589;28;20053;-54
2020/12/29 02:02:36;;;;;;;9.95;0.25;;;5.90;99.90;;;;;;5030232;28;20046;-57
2020/12/29 02:05:04;;;;;;;3.10;0.10;;;6.00;99.90;;;;;;5028784;28;20053;-57
2020/12/29 02:07:31;;;;;;;3.25;0.20;;;6.00;99.90;;;;;;5022817;28;20053;-57
2020/12/29 02:09:58;;;;;;;3.55;0.20;;;5.90;99.90;;;;;;5030908;28;20060;-55
2020/12/29 02:12:25;;;;;;;6.85;0.45;;;5.90;99.90;;;;;;5015961;28;20050;-57
2020/12/29 02:14:52;;;;;;;2.05;0.20;;;5.80;99.90;;;;;;5024321;28;20513;-56
2020/12/29 02:17:18;;;;;;;4.82;0.40;;;5.90;99.90;;;;;;5013367;28;20053;-57
2020/12/29 02:19:45;;;;;;;3.17;0.22;;;6.00;99.90;;;;;;5026545;28;20053;-56
2020/12/29 02:22:20;;;;;;;2.33;0.20;;;5.90;99.90;;;;;;5025594;28;20060;-53
2020/12/29 02:24:55;;;;;;;3.85;0.20;;;5.90;99.90;;;;;;5031492;28;20057;-54
2020/12/29 02:27:24;;;;;;;5.10;0.20;;;5.90;99.90;;;;;;5027949;28;20057;-56
2020/12/29 02:29:51;;;;;;;4.95;0.10;;;5.90;99.90;;;;;;5021358;28;20061;-57
2020/12/29 02:32:19;;;;;;;4.18;0.20;;;5.80;99.90;;;;;;5028989;28;20372;-56
2020/12/29 02:34:47;;;;;;;9.05;0.20;;;5.80;99.90;;;;;;5029943;28;20402;-56
2020/12/29 02:37:14;;;;;;;5.07;0.15;;;5.90;99.90;;;;;;5022904;28;20045;-56
2020/12/29 02:39:48;;;;;;;4.63;0.20;;;5.80;99.90;;;;;;5018189;28;20057;-56
2020/12/29 02:42:15;;;;;;;5.40;0.17;;;5.80;99.90;;;;;;5029239;28;20054;-56
2020/12/29 02:44:41;;;;;;;5.28;0.10;;;5.70;99.90;;;;;;5026984;28;20490;-56
2020/12/29 02:47:08;;;;;;;5.72;0.50;;;5.70;99.90;;;;;;5025936;28;20053;-56
2020/12/29 02:49:35;;;;;;;5.15;0.85;;;5.70;99.90;;;;;;5026293;28;20049;-57
2020/12/29 02:52:03;;;;;;;0.57;0.10;;;5.80;99.90;;;;;;5012810;28;20042;-54
2020/12/29 02:54:29;;;;;;;2.80;0.20;;;5.90;99.90;;;;;;5029631;28;20422;-54
2020/12/29 02:56:57;;;;;;;4.93;0.20;;;5.90;99.90;;;;;;5025947;28;20053;-56
2020/12/29 02:59:25;;;;;;;4.32;0.20;;;5.80;99.90;;;;;;5023753;28;20049;-57
2020/12/29 03:01:52;;;;;;;8.65;0.10;;;5.90;99.90;;;;;;5024126;28;20057;-56
2020/12/29 03:04:19;;;;;;;6.93;0.20;;;5.90;99.90;;;;;;5030311;28;20453;-56
2020/12/29 03:06:46;;;;;;;2.22;0.17;;;6.10;99.90;;;;;;5026835;28;20517;-55
2020/12/29 03:09:13;;;;;;;4.80;0.20;;;6.00;99.90;;;;;;5018969;28;21598;-55
2020/12/29 03:11:40;;;;;;;5.63;0.30;;;6.10;99.90;;;;;;5029949;28;20076;-55
2020/12/29 03:14:07;;;;;;;2.28;0.10;;;5.80;99.90;;;;;;5029289;28;20045;-55
2020/12/29 03:16:35;;;;;;;6.18;1.08;;;5.60;99.90;;;;;;5017701;28;20103;-56
2020/12/29 03:19:19;;;;;;;2.80;0.20;;;5.70;99.90;;;;;;5025378;28;20099;-56
2020/12/29 03:21:46;;;;;;;1.17;0.20;;;5.90;99.90;;;;;;5023112;28;20065;-56
2020/12/29 03:24:13;;;;;;;1.88;0.15;;;5.80;99.90;;;;;;5026580;28;20049;-55
2020/12/29 03:26:39;;;;;;;3.22;0.13;;;5.60;99.90;;;;;;5017664;28;20050;-53
2020/12/29 03:29:06;;;;;;;0.75;0.00;;;5.70;99.90;;;;;;5029418;28;20045;-55
2020/12/29 03:31:34;;;;;;;2.22;0.13;;;5.80;99.90;;;;;;5029336;28;20049;-57
2020/12/29 03:34:01;;;;;;;4.78;0.25;;;5.90;99.90;;;;;;5032670;28;20045;-56
2020/12/29 03:36:27;;;;;;;2.55;0.10;;;5.90;99.90;;;;;;5031536;28;20052;-54
2020/12/29 03:38:54;;;;;;;0.20;0.10;;;5.80;99.90;;;;;;5018162;28;20052;-54
2020/12/29 03:41:21;;;;;;;3.75;0.10;;;5.60;99.90;;;;;;5029041;28;20533;-56
2020/12/29 03:43:47;;;;;;;3.45;0.10;;;5.60;99.90;;;;;;5020339;28;20038;-55
2020/12/29 03:46:13;;;;;;;5.25;0.10;;;5.70;99.90;;;;;;5035194;28;20076;-56
2020/12/29 03:48:40;;;;;;;6.10;0.20;;;5.70;99.90;;;;;;5022789;28;20072;-55
2020/12/29 03:51:06;;;;;;;12.20;0.20;;;5.70;99.90;;;;;;5030996;28;20532;-55
2020/12/29 03:53:33;;;;;;;2.13;0.10;;;5.60;99.90;;;;;;5032449;28;20064;-56
2020/12/29 03:55:59;;;;;;;3.55;0.10;;;5.70;99.90;;;;;;5024710;28;20430;-56
2020/12/29 03:58:26;;;;;;;7.60;0.10;;;5.80;99.90;;;;;;5030448;28;20510;-56
2020/12/29 04:00:52;;;;;;;3.05;0.10;;;5.70;99.90;;;;;;5025638;28;20050;-56
2020/12/29 04:03:18;;;;;;;6.22;0.20;;;5.70;99.90;;;;;;5025246;28;20046;-56
2020/12/29 04:05:45;;;;;;;1.38;0.17;;;5.70;99.90;;;;;;5020967;28;20057;-57
2020/12/29 04:08:11;;;;;;;4.00;0.20;;;5.70;99.90;;;;;;5034084;28;20454;-55
2020/12/29 04:10:38;;;;;;;4.22;0.10;;;5.70;99.90;;;;;;5028998;28;20402;-55
2020/12/29 04:13:04;;;;;;;2.22;0.17;;;5.70;99.90;;;;;;5024092;28;20045;-56
2020/12/29 04:15:31;;;;;;;2.38;0.20;;;5.70;99.90;;;;;;5029572;28;20056;-55
2020/12/29 04:17:58;;;;;;;2.97;0.50;;;5.80;99.90;;;;;;5032644;28;20045;-56
2020/12/29 04:20:24;;;;;;;1.88;0.10;;;5.80;99.90;;;;;;5027366;28;20048;-54
2020/12/29 04:22:51;;;;;;;1.55;0.13;;;5.90;99.90;;;;;;5027193;28;20053;-56
2020/12/29 04:25:18;;;;;;;2.17;0.10;;;5.90;99.90;;;;;;5028202;28;20061;-56
2020/12/29 04:27:44;;;;;;;1.05;0.10;;;5.90;99.90;;;;;;5024765;28;20049;-55
2020/12/29 04:30:11;;;;;;;2.20;0.10;;;6.00;99.90;;;;;;5031921;28;20061;-53
2020/12/29 04:32:38;;;;;;;0.93;0.13;;;6.00;99.90;;;;;;5030585;28;20490;-57
2020/12/29 04:35:06;;;;;;;1.85;0.10;;;6.00;99.90;;;;;;5033164;28;20092;-56
2020/12/29 04:37:34;;;;;;;2.03;0.28;;;6.10;99.90;;;;;;5031251;28;20049;-55
2020/12/29 04:40:00;;;;;;;1.75;0.10;;;6.00;99.90;;;;;;5020476;28;20045;-56
2020/12/29 04:42:28;;;;;;;1.55;0.10;;;6.10;99.90;;;;;;5022926;28;20046;-55
2020/12/29 04:44:55;;;;;;;0.30;0.10;;;6.10;99.90;;;;;;5025093;28;20521;-56
2020/12/29 04:47:26;;;;;;;7.45;0.70;;;6.20;99.90;;;;;;5029957;28;20057;-53
2020/12/29 04:49:53;;;;;;;3.17;0.20;;;6.20;99.90;;;;;;5030748;28;20053;-57
2020/12/29 04:52:21;;;;;;;4.32;0.30;;;6.30;99.90;;;;;;5030588;28;20576;-55
2020/12/29 04:54:52;;;;;;;4.93;0.43;;;6.20;99.90;;;;;;5031049;28;20049;-53
2020/12/29 04:57:20;;;;;;;4.40;0.30;;;6.10;99.90;;;;;;5030293;28;20049;-55
2020/12/29 04:59:52;;;;;;;5.03;0.17;;;6.00;99.90;;;;;;5032623;28;20095;-56
2020/12/29 05:02:19;;;;;;;4.00;0.22;;;5.90;99.90;;;;;;5026414;28;20049;-56
2020/12/29 05:04:45;;;;;;;7.00;0.30;;;5.80;99.90;;;;;;5032832;28;20463;-55
2020/12/29 05:07:11;;;;;;;7.63;0.20;;;5.70;99.90;;;;;;5029721;28;20061;-55
2020/12/29 05:09:38;;;;;;;7.40;0.75;;;5.70;99.90;;;;;;5031384;28;20050;-53
2020/12/29 05:12:05;;;;;;;7.00;0.30;;;5.60;99.90;;;;;;5025779;28;20046;-56
2020/12/29 05:14:32;;;;;;;3.72;0.20;;;5.50;99.90;;;;;;5020293;28;20076;-57
2020/12/29 05:17:01;;;;;;;6.43;0.85;;;5.40;99.90;;;;;;5023427;28;20049;-57
2020/12/29 05:19:28;;;;;;;7.00;0.60;;;5.40;99.90;;;;;;5023850;28;20045;-56
2020/12/29 05:21:58;;;;;;;2.08;0.40;;;5.30;99.90;;;;;;5031703;28;20057;-57
2020/12/29 05:24:25;;;;;;;3.15;0.32;;;5.30;99.90;;;;;;5031127;28;20045;-56
2020/12/29 05:26:59;;;;;;;5.43;0.20;;;5.30;99.90;;;;;;5028583;28;20065;-56
2020/12/29 05:29:27;;;;;;;2.25;0.20;;;5.30;99.90;;;;;;5024553;28;20049;-54
2020/12/29 05:31:55;;;;;;;5.03;0.80;;;5.30;99.90;;;;;;5021579;28;20119;-55
2020/12/29 05:34:22;;;;;;;2.22;0.30;;;5.30;99.90;;;;;;5032325;28;20052;-57
2020/12/29 05:36:50;;;;;;;1.90;0.20;;;5.40;99.90;;;;;;5027968;28;20041;-55
2020/12/29 05:39:20;;;;;;;2.97;0.22;;;5.40;99.90;;;;;;5031031;28;20056;-56
2020/12/29 05:41:48;;;;;;;5.93;0.40;;;5.50;99.90;;;;;;5028223;28;20060;-56
2020/12/29 05:44:35;;;;;;;2.85;0.20;;;5.40;99.90;;;;;;5031442;28;20049;-57
2020/12/29 05:47:03;;;;;;;3.67;0.30;;;5.50;99.90;;;;;;5020626;28;20060;-57
2020/12/29 05:49:33;;;;;;;9.38;0.38;;;5.50;99.90;;;;;;5024621;28;20045;-55
2020/12/29 05:52:00;;;;;;;11.30;1.00;;;5.50;99.90;;;;;;5022540;28;20458;-55
2020/12/29 05:54:27;;;;;;;6.20;0.30;;;5.50;99.90;;;;;;5026208;28;20046;-56
2020/12/29 05:56:54;;;;;;;4.47;0.30;;;5.60;99.90;;;;;;5022106;28;20057;-57
2020/12/29 05:59:21;;;;;;;6.55;0.30;;;5.60;99.90;;;;;;5030779;28;20041;-57
2020/12/29 06:01:52;;;;;;;5.22;0.20;;;5.60;99.90;;;;;;5027699;28;20050;-57
2020/12/29 06:04:20;;;;;;;4.53;0.73;;;5.60;99.90;;;;;;5032282;28;20049;-57
2020/12/29 06:06:49;;;;;;;5.13;0.30;;;5.70;99.90;;;;;;5030739;28;20046;-57
2020/12/29 06:09:18;;;;;;;3.05;0.38;;;5.70;99.90;;;;;;5031637;28;20049;-56
2020/12/29 06:11:47;;;;;;;7.50;0.25;;;5.70;99.90;;;;;;5026175;28;20053;-55
2020/12/29 06:14:15;;;;;;;7.55;0.20;;;5.70;99.90;;;;;;5026798;28;20048;-57
2020/12/29 06:16:43;;;;;;;7.13;0.40;;;5.70;99.90;;;;;;5030755;28;20075;-57
2020/12/29 06:19:32;;;;;;;6.40;0.35;;;5.70;99.90;;;;;;5030022;28;20478;-56
2020/12/29 06:22:09;;;;;;;3.63;0.30;;;5.70;99.90;;;;;;5030755;28;20056;-55
2020/12/29 06:24:45;;;;;;;5.88;0.20;;;5.70;99.90;;;;;;5027118;28;20057;-57
2020/12/29 06:27:13;;;;;;;8.10;0.30;;;5.70;99.90;;;;;;5030865;28;20045;-57
2020/12/29 06:29:44;;;;;;;1.65;0.20;;;5.80;99.90;;;;;;5026885;28;20054;-57
2020/12/29 06:32:13;;;;;;;6.57;0.40;;;5.80;99.90;;;;;;5019766;28;20498;-56
2020/12/29 06:34:43;;;;;;;9.70;0.30;;;5.90;99.90;;;;;;5028458;28;20049;-57
2020/12/29 06:37:26;;;;;;;7.20;0.50;;;6.10;99.90;;;;;;5025104;28;20052;-57
2020/12/29 06:40:04;;;;;;;11.63;0.80;;;6.10;99.90;;;;;;5013769;28;20045;-57
2020/12/29 06:42:33;;;;;;;8.48;0.77;;;6.20;99.90;;;;;;5025386;28;20053;-57
2020/12/29 06:45:04;;;;;;;7.50;0.45;;;6.20;99.90;;;;;;5019970;28;20054;-57
2020/12/29 06:47:31;;;;;;;6.43;0.30;;;6.30;99.90;;;;;;5029228;28;20057;-57
2020/12/29 06:49:57;;;;;;;4.10;0.40;;;6.30;99.90;;;;;;5026606;28;20097;-57
2020/12/29 06:52:24;;;;;;;5.65;0.50;;;6.30;99.90;;;;;;5028875;28;20799;-56
2020/12/29 06:54:56;;;;;;;6.38;0.30;;;6.30;99.90;;;;;;5025991;28;20459;-57
2020/12/29 06:57:35;;;;;;;6.03;0.30;;;6.30;99.90;;;;;;5017029;28;20060;-57
2020/12/29 07:00:10;;;;;;;7.25;0.45;;;6.30;99.90;;;;;;5026631;28;20136;-57
2020/12/29 07:02:38;;;;;;;8.15;0.30;;;6.40;99.90;;;;;;5027601;28;20064;-58
2020/12/29 07:05:18;;;;;;;4.95;0.40;;;6.40;99.90;;;;;;5022055;28;20060;-58
2020/12/29 07:08:00;;;;;;;7.75;0.30;;;6.40;99.90;;;;;;5027744;28;20060;-58
2020/12/29 07:10:41;;;;;;;5.30;0.30;;;6.40;99.90;;;;;;5018405;28;20045;-54
2020/12/29 07:13:14;;;;;;;6.72;0.30;;;6.50;99.90;;;;;;5018406;28;20046;-58
2020/12/29 07:15:48;;;;;;;5.75;0.32;;;6.40;99.90;;;;;;5023422;28;20474;-57
2020/12/29 07:18:21;;;;;;;5.72;0.50;;;6.40;99.90;;;;;;5030229;28;20163;-58
2020/12/29 07:20:49;;;;;;;4.05;0.30;;;6.40;99.90;;;;;;5023467;28;20041;-57
2020/12/29 07:23:19;;;;;;;7.80;0.40;;;6.30;99.90;;;;;;5014466;28;20057;-58
2020/12/29 07:25:48;;;;;;;6.68;0.30;;;6.30;99.90;;;;;;5029391;28;20057;-57
2020/12/29 07:28:19;;;;;;;7.65;0.50;;;6.30;99.90;;;;;;5025979;28;20045;-57
2020/12/29 07:30:45;;;;;;;7.72;0.80;;;6.30;99.90;;;;;;5023857;28;20061;-57
2020/12/29 07:33:12;;;;;;;4.93;0.40;;;6.30;99.90;;;;;;5027070;28;20410;-57
2020/12/29 07:35:39;;;;;;;5.22;0.45;;;6.30;99.90;;;;;;5024124;28;20053;-56
2020/12/29 07:38:14;;;;;;;5.10;0.30;;;6.30;99.90;;;;;;5030384;28;20046;-57
2020/12/29 07:40:42;;;;;;;10.65;0.30;;;6.30;99.90;;;;;;5027540;28;20060;-57
2020/12/29 07:43:09;;;;;;;9.32;0.40;;;6.30;99.90;;;;;;5024111;28;20057;-57
2020/12/29 07:45:36;;;;;;;9.27;0.60;;;6.40;99.90;;;;;;5023371;28;20505;-57
2020/12/29 07:48:04;;;;;;;4.05;0.38;;;6.30;99.90;;;;;;5024280;28;20054;-57
2020/12/29 07:50:32;;;;;;;10.70;0.30;;;6.40;99.90;;;;;;5026356;28;20049;-57
2020/12/29 07:53:09;;;;;;;5.18;0.30;;;6.40;99.90;;;;;;5024905;28;20045;-56
2020/12/29 07:55:39;;;;;;;8.45;0.30;;;6.30;99.90;;;;;;5027401;28;20045;-54
2020/12/29 07:58:07;;;;;;;2.05;0.20;;;6.20;99.90;;;;;;5019748;28;20057;-57
2020/12/29 08:00:37;;;;;;;0.50;0.10;;;6.10;99.90;;;;;;5029218;28;20052;-57
2020/12/29 08:03:04;;;;;;;1.75;0.50;;;6.20;99.90;;;;;;5027849;28;20045;-58
2020/12/29 08:05:34;;;;;;;2.15;0.20;;;6.30;99.90;;;;;;5026226;28;20057;-58
2020/12/29 08:08:08;;;;;;;1.83;0.10;;;6.40;99.90;;;;;;5025711;28;20467;-58
2020/12/29 08:10:39;;;;;;;6.28;0.57;;;6.40;99.90;;;;;;5021786;28;20049;-58
2020/12/29 08:13:12;;;;;;;3.22;0.20;;;6.40;99.90;;;;;;5018470;28;20392;-58
2020/12/29 08:15:40;;;;;;;6.75;0.90;;;6.40;99.90;;;;;;5022895;28;20041;-57
2020/12/29 08:18:19;;;;;;;2.33;0.50;;;6.40;99.90;;;;;;5028543;28;20042;-57
2020/12/29 08:20:45;;;;;;;6.18;0.20;;;6.40;99.90;;;;;;5030674;28;20053;-57
2020/12/29 08:23:14;;;;;;;6.55;0.50;;;6.40;99.90;;;;;;5032598;28;20054;-58
2020/12/29 08:25:56;;;;;;;5.43;0.50;;;6.40;99.90;;;;;;5032426;28;20056;-57
2020/12/29 08:28:25;;;;;;;9.55;0.40;;;6.40;99.90;;;;;;5032434;28;20050;-57
2020/12/29 08:30:53;;;;;;;6.32;0.40;;;6.40;99.90;;;;;;5021626;28;20057;-58
2020/12/29 08:33:22;;;;;;;10.65;0.70;;;6.40;99.90;;;;;;5031538;28;20049;-57
2020/12/29 08:35:54;;;;;;;6.60;0.30;;;6.40;99.90;;;;;;5028769;28;20053;-58
2020/12/29 08:38:28;;;;;;;9.77;0.65;;;6.40;99.90;;;;;;5026763;28;20049;-57
2020/12/29 08:41:13;;;;;;;8.43;0.50;;;6.40;99.90;;;;;;5024798;28;20048;-57
2020/12/29 08:43:45;;;;;;;8.23;0.32;;;6.40;99.90;;;;;;5032530;28;20506;-57
2020/12/29 08:46:15;;;;;;;3.20;0.38;;;6.40;99.90;;;;;;5030815;28;20112;-58
2020/12/29 08:49:03;;;;;;;13.32;1.65;;;6.40;99.90;;;;;;5032300;28;20475;-57
2020/12/29 08:51:43;;;;;;;16.77;0.68;;;6.30;99.90;;;;;;5024825;28;20442;-56
2020/12/29 08:54:10;;;;;;;8.48;1.17;;;6.30;99.90;;;;;;5022742;28;20057;-58
2020/12/29 08:56:38;;;;;;;10.88;1.67;;;6.30;99.90;;;;;;5027723;28;20045;-57
2020/12/29 08:59:22;;;;;;;5.00;0.77;;;6.30;99.90;;;;;;5027255;28;20048;-57
2020/12/29 09:02:01;;;;;;;2.75;0.40;;;6.30;99.90;;;;;;5015927;28;20053;-57
2020/12/29 09:04:36;;;;;;;3.20;0.10;;;6.40;99.90;;;;;;5023300;28;20042;-57
2020/12/29 09:07:13;;;;;;;5.90;0.50;;;6.50;99.90;;;;;;5023868;28;20651;-58
2020/12/29 09:09:52;;;;;;;6.03;0.50;;;6.50;99.90;;;;;;5017401;28;20045;-58
2020/12/29 09:12:28;;;;;;;2.28;0.40;;;6.50;99.90;;;;;;5027202;28;20405;-58
2020/12/29 09:14:55;;;;;;;6.95;0.50;;;6.50;99.90;;;;;;5017285;28;20057;-57
2020/12/29 09:17:24;;;;;;;3.97;0.30;;;6.60;99.90;;;;;;5029726;28;20071;-58
2020/12/29 09:20:06;;;;;;;8.40;0.30;;;6.60;99.90;;;;;;5031754;28;20048;-58
2020/12/29 09:22:33;;;;;;;6.70;0.40;;;6.60;99.90;;;;;;5024858;28;20054;-58
2020/12/29 09:25:00;;;;;;;2.83;0.30;;;6.50;99.90;;;;;;5030276;28;20049;-58
2020/12/29 09:27:28;;;;;;;6.15;0.30;;;6.50;99.90;;;;;;5013671;28;20045;-57
2020/12/29 09:29:56;;;;;;;4.75;0.30;;;6.60;99.90;;;;;;5030656;28;20061;-58
2020/12/29 09:32:23;;;;;;;2.42;0.38;;;6.60;99.90;;;;;;5030651;28;20436;-57
2020/12/29 09:34:53;;;;;;;9.73;0.30;;;6.70;99.90;;;;;;5020737;28;20403;-57
2020/12/29 09:37:19;;;;;;;2.85;0.40;;;6.60;99.90;;;;;;5027309;28;20041;-58
2020/12/29 09:39:46;;;;;;;13.80;1.10;;;6.70;99.90;;;;;;5032519;28;20045;-58
2020/12/29 09:42:13;;;;;;;8.88;1.00;;;6.70;99.90;;;;;;5029725;28;20064;-58
2020/12/29 09:44:39;;;;;;;4.45;0.60;;;6.70;99.90;;;;;;5030047;28;20187;-58
2020/12/29 09:47:06;;;;;;;4.88;0.93;;;6.70;99.90;;;;;;5030328;28;20052;-57
2020/12/29 09:49:33;;;;;;;3.63;0.40;;;6.70;99.90;;;;;;5030585;28;20124;-57
2020/12/29 09:52:00;;;;;;;0.52;0.20;;;6.80;99.90;;;;;;5032516;28;20060;-57
2020/12/29 09:54:27;;;;;;;2.35;0.20;;;6.80;99.90;;;;;;5030018;28;20132;-58
2020/12/29 09:56:56;;;;;;;2.10;0.20;;;6.80;99.90;;;;;;5016994;28;20046;-57
2020/12/29 09:59:23;;;;;;;1.25;0.30;;;6.80;99.90;;;;;;5026297;28;20496;-58
2020/12/29 10:01:49;;;;;;;2.85;0.25;;;6.70;99.90;;;;;;5022472;28;20451;-57
2020/12/29 10:04:16;;;;;;;7.80;0.30;;;6.70;99.90;;;;;;5031026;28;20463;-58
2020/12/29 10:06:42;;;;;;;9.43;0.93;;;6.70;99.90;;;;;;5029000;28;20065;-58
2020/12/29 10:09:09;;;;;;;5.65;0.30;;;6.70;99.90;;;;;;5021907;28;20049;-57
2020/12/29 10:11:35;;;;;;;1.80;0.90;;;6.70;99.90;;;;;;5026918;28;20394;-57
2020/12/29 10:14:01;;;;;;;0.90;0.25;;;6.60;99.90;;;;;;5017553;28;20480;-58
2020/12/29 10:16:32;;;;;;;4.05;0.63;;;6.50;99.90;;;;;;5026554;28;20049;-58
2020/12/29 10:18:58;;;;;;;2.50;0.40;;;6.50;99.90;;;;;;5030776;28;20056;-57
2020/12/29 10:21:25;;;;;;;3.28;0.20;;;6.80;99.90;;;;;;5025989;28;20064;-58
2020/12/29 10:23:51;;;;;;;1.58;0.30;;;7.00;99.90;;;;;;5025940;28;20057;-57
2020/12/29 10:26:18;;;;;;;4.95;0.30;;;7.00;99.90;;;;;;5028424;28;20379;-58
2020/12/29 10:28:44;;;;;;;6.78;0.32;;;7.00;99.90;;;;;;5028055;28;20444;-58
2020/12/29 10:31:11;;;;;;;4.40;0.20;;;7.00;99.90;;;;;;5026102;28;20079;-57
2020/12/29 10:33:38;;;;;;;3.97;0.30;;;7.00;99.90;;;;;;5025031;28;20045;-58
2020/12/29 10:36:04;;;;;;;5.28;0.30;;;7.10;99.90;;;;;;5021614;28;20042;-58
2020/12/29 10:38:31;;;;;;;10.48;0.45;;;7.00;99.90;;;;;;5026672;28;20056;-58
2020/12/29 10:40:58;;;;;;;4.70;0.30;;;7.00;99.90;;;;;;5029079;28;20063;-57
2020/12/29 10:43:24;;;;;;;5.88;0.60;;;7.00;99.90;;;;;;5029644;28;20449;-58
2020/12/29 10:45:50;;;;;;;2.13;0.20;;;7.00;99.90;;;;;;5025967;28;20045;-58
2020/12/29 10:48:17;;;;;;;2.40;0.20;;;6.90;99.90;;;;;;5030129;28;20537;-56
2020/12/29 10:50:43;;;;;;;1.45;0.10;;;6.90;99.90;;;;;;5030608;28;20064;-50
2020/12/29 10:53:11;;;;;;;0.70;0.20;;;6.90;99.90;;;;;;5029932;28;20064;-50
2020/12/29 10:55:38;;;;;;;1.75;0.30;;;6.80;99.90;;;;;;5026735;28;20482;-50
2020/12/29 10:58:04;;;;;;;1.55;0.28;;;6.70;99.90;;;;;;5029754;28;20043;-50
2020/12/29 11:00:32;;;;;;;0.70;0.10;;;6.60;99.90;;;;;;5025713;28;20049;-50
2020/12/29 11:02:58;;;;;;;1.70;0.20;;;6.60;99.90;;;;;;5024719;28;20170;-50
2020/12/29 11:05:24;;;;;;;0.38;0.17;;;6.50;99.90;;;;;;5031573;28;20049;-49
2020/12/29 11:07:51;;;;;;;0.40;0.00;;;6.50;99.90;;;;;;5028808;28;20057;-49
2020/12/29 11:10:17;;;;;;;4.15;0.10;;;6.50;99.90;;;;;;5034898;28;20056;-50
2020/12/29 11:12:44;;;;;;;0.95;0.10;;;6.50;99.90;;;;;;5022095;28;20045;-49
2020/12/29 11:15:10;;;;;;;2.85;0.20;;;6.60;99.90;;;;;;5029920;28;20109;-50
2020/12/29 11:17:37;;;;;;;1.20;0.10;;;6.60;99.90;;;;;;5027242;28;20127;-49
2020/12/29 11:20:03;;;;;;;2.60;0.30;;;6.60;99.90;;;;;;5030012;28;20068;-51
2020/12/29 11:22:30;;;;;;;1.63;0.30;;;6.60;99.90;;;;;;5029446;28;20418;-49
2020/12/29 11:24:56;;;;;;;0.80;0.20;;;6.60;99.90;;;;;;5029110;28;20050;-49
2020/12/29 11:27:23;;;;;;;1.00;0.22;;;6.60;99.90;;;;;;5029102;28;20051;-49
2020/12/29 11:29:49;;;;;;;1.95;0.30;;;6.60;99.90;;;;;;5029570;28;20053;-49
2020/12/29 11:32:16;;;;;;;0.80;0.30;;;6.50;99.90;;;;;;5029564;28;20386;-50
2020/12/29 11:34:42;;;;;;;1.15;0.22;;;6.50;99.90;;;;;;5022211;28;20109;-49
2020/12/29 11:37:09;;;;;;;0.60;0.30;;;6.50;99.90;;;;;;5027404;28;20045;-49
2020/12/29 11:39:35;;;;;;;1.92;0.20;;;6.50;99.90;;;;;;5024784;28;20494;-50
2020/12/29 11:42:04;;;;;;;2.58;0.10;;;6.40;99.90;;;;;;5023563;28;20499;-50
2020/12/29 11:44:31;;;;;;;2.72;0.30;;;6.40;99.90;;;;;;5027186;28;20080;-50
2020/12/29 11:46:57;;;;;;;2.58;0.20;;;6.50;99.90;;;;;;5027669;28;20068;-50
2020/12/29 11:49:24;;;;;;;2.05;0.20;;;6.50;99.90;;;;;;5026805;28;20041;-50
2020/12/29 11:51:50;;;;;;;1.13;0.20;;;6.40;99.90;;;;;;5020487;28;20045;-50
2020/12/29 11:54:17;;;;;;;4.65;1.08;;;6.30;99.90;;;;;;5041688;28;20041;-50
2020/12/29 11:56:48;;;;;;;3.05;0.28;;;6.30;99.90;;;;;;5025603;28;20063;-50
2020/12/29 11:59:15;;;;;;;1.05;0.20;;;6.30;99.90;;;;;;5022629;28;20045;-50
2020/12/29 12:01:42;;;;;;;2.22;0.30;;;6.30;99.90;;;;;;5028363;28;20390;-50
2020/12/29 12:04:08;;;;;;;1.58;0.40;;;6.20;99.90;;;;;;5031923;28;20061;-50
2020/12/29 12:06:35;;;;;;;1.95;0.30;;;6.30;99.90;;;;;;5031468;28;20053;-50
2020/12/29 12:09:04;;;;;;;0.98;0.20;;;6.20;99.90;;;;;;5029312;28;20060;-50
2020/12/29 12:11:30;;;;;;;1.05;0.20;;;6.20;99.90;;;;;;5030136;28;20053;-49
2020/12/29 12:13:57;;;;;;;0.52;0.20;;;6.20;99.90;;;;;;5033231;28;20480;-49
2020/12/29 12:16:24;;;;;;;1.45;0.20;;;6.10;99.90;;;;;;5032429;28;20045;-52
2020/12/29 12:18:51;;;;;;;2.05;0.10;;;6.10;99.90;;;;;;5031913;28;20042;-53
2020/12/29 12:21:28;;;;;;;2.15;0.10;;;6.10;99.90;;;;;;5033154;28;20085;-53
2020/12/29 12:23:56;;;;;;;1.83;0.40;;;6.10;99.90;;;;;;5033053;28;20045;-50
2020/12/29 12:26:23;;;;;;;0.90;0.40;;;6.00;99.90;;;;;;5031906;28;20049;-51
2020/12/29 12:28:49;;;;;;;1.25;0.40;;;6.00;99.90;;;;;;5032182;28;20581;-51
2020/12/29 12:31:16;;;;;;;1.25;0.10;;;6.00;99.90;;;;;;5032933;28;20050;-54
2020/12/29 12:33:43;;;;;;;1.80;0.10;;;5.90;99.90;;;;;;5030964;28;20100;-50
2020/12/29 12:36:11;;;;;;;1.75;0.20;;;5.90;99.90;;;;;;5031193;28;20060;-50
2020/12/29 12:38:40;;;;;;;2.70;0.20;;;5.90;99.90;;;;;;5022840;28;20426;-51
2020/12/29 12:41:07;;;;;;;0.20;0.10;;;5.90;99.90;;;;;;5031857;28;20152;-50
2020/12/29 12:43:34;;;;;;;0.40;0.10;;;5.90;99.90;;;;;;5031423;28;20049;-49
2020/12/29 12:46:00;;;;;;;2.20;0.10;;;6.00;99.90;;;;;;5033054;28;20478;-49
2020/12/29 12:48:27;;;;;;;1.85;0.10;;;6.00;99.90;;;;;;5031793;28;20529;-50
2020/12/29 12:50:54;;;;;;;1.05;0.10;;;6.00;99.90;;;;;;5033002;28;20402;-51
2020/12/29 12:53:21;;;;;;;0.60;0.20;;;6.00;99.90;;;;;;5029117;28;20861;-49
2020/12/29 12:55:47;;;;;;;3.25;0.50;;;6.00;99.90;;;;;;5014890;28;20045;-49
2020/12/29 12:58:13;;;;;;;1.45;0.50;;;6.00;99.90;;;;;;5033118;28;20037;-50
2020/12/29 13:00:40;;;;;;;1.83;0.70;;;6.00;99.90;;;;;;5031414;28;20053;-52
2020/12/29 13:03:06;;;;;;;4.28;0.60;;;6.00;99.90;;;;;;5032673;28;20041;-50
2020/12/29 13:05:33;;;;;;;3.40;0.57;;;6.10;99.90;;;;;;5030162;28;20064;-49